Time;durP1;ratioP1;P1;durP2;ratioP2;P2;SDS_P1;SDS_P2;PMS_P1;PMS_P2;Temp;Humidity;BMP_temperature;BMP_pressure;BME280_temperature;BME280_humidity;BME280_pressure;Samples;Min_cycle;Max_cycle;Signal;HPM_P1;HPM_P2
2022/05/09 00:01:59;;;;;;;7.85;2.15;;;;;;;-141.50;100.00;63355.56;5079753;28;20044;-80
2022/05/09 00:04:27;;;;;;;5.63;1.90;;;;;;;-141.50;100.00;63355.56;5098727;28;20430;-82
2022/05/09 00:06:53;;;;;;;10.95;2.40;;;;;;;-141.50;100.00;63355.56;5105707;28;20051;-82
2022/05/09 00:09:20;;;;;;;5.80;2.25;;;;;;;-141.50;100.00;63355.56;5114449;28;20052;-80
2022/05/09 00:11:46;;;;;;;12.07;2.65;;;;;;;-141.50;100.00;63355.56;5114350;28;20052;-81
2022/05/09 00:14:13;;;;;;;8.75;2.50;;;;;;;-141.50;100.00;63355.56;5104555;28;20534;-78
2022/05/09 00:16:40;;;;;;;7.05;2.50;;;;;;;-141.50;100.00;63355.56;5130356;28;20046;-79
2022/05/09 00:19:09;;;;;;;6.45;2.17;;;;;;;-141.50;100.00;63355.56;5132202;28;20077;-79
2022/05/09 00:21:40;;;;;;;4.25;2.08;;;;;;;-141.50;100.00;63355.56;5117414;28;20105;-79
2022/05/09 00:24:14;;;;;;;7.40;2.22;;;;;;;-141.50;100.00;63355.56;5112842;28;20051;-79
2022/05/09 00:26:41;;;;;;;7.97;2.25;;;;;;;-141.50;100.00;63355.56;5094703;28;20455;-81
2022/05/09 00:29:10;;;;;;;7.25;2.90;;;;;;;-141.50;100.00;63355.56;5095196;28;20075;-79
2022/05/09 00:31:39;;;;;;;6.53;2.65;;;;;;;-141.50;100.00;63355.56;5094412;28;20055;-80
2022/05/09 00:34:07;;;;;;;6.30;2.60;;;;;;;-141.50;100.00;63355.56;5095227;28;20640;-81
2022/05/09 00:36:34;;;;;;;6.40;2.65;;;;;;;-141.50;100.00;63355.56;5084064;28;20059;-81
2022/05/09 00:39:01;;;;;;;7.38;2.70;;;;;;;-141.50;100.00;63355.56;5086263;28;20056;-80
2022/05/09 00:41:28;;;;;;;6.95;2.63;;;;;;;-141.50;100.00;63355.56;5093689;28;20052;-80
2022/05/09 00:43:56;;;;;;;10.55;3.10;;;;;;;-141.50;100.00;63355.56;5074448;28;20106;-79
2022/05/09 00:46:24;;;;;;;13.00;3.28;;;;;;;-141.50;100.00;63355.56;5092523;28;20044;-79
2022/05/09 00:48:51;;;;;;;13.95;3.35;;;;;;;-141.50;100.00;63355.56;5092947;28;20108;-80
2022/05/09 00:51:23;;;;;;;9.60;3.60;;;;;;;-141.50;100.00;63355.56;5095078;28;20048;-78
2022/05/09 00:53:51;;;;;;;7.32;3.03;;;;;;;-141.50;100.00;63355.56;5098571;28;20136;-80
2022/05/09 00:56:29;;;;;;;8.27;2.90;;;;;;;-141.50;100.00;63355.56;5093536;28;20142;-82
2022/05/09 00:59:01;;;;;;;8.80;2.85;;;;;;;-141.50;100.00;63355.56;5092998;28;20056;-80
2022/05/09 01:01:28;;;;;;;9.32;2.92;;;;;;;-141.50;100.00;63355.56;5098204;28;20102;-79
2022/05/09 01:04:06;;;;;;;10.65;2.80;;;;;;;-141.50;100.00;63355.56;5083955;28;20163;-78
2022/05/09 01:06:33;;;;;;;7.38;2.45;;;;;;;-141.50;100.00;63355.56;5092730;28;20036;-79
2022/05/09 01:09:00;;;;;;;4.43;2.20;;;;;;;-141.50;100.00;63355.56;5091289;28;20048;-80
2022/05/09 01:11:28;;;;;;;9.18;2.63;;;;;;;-141.50;100.00;63355.56;5091226;28;20613;-79
2022/05/09 01:14:02;;;;;;;6.10;2.97;;;;;;;-141.50;100.00;63355.56;5092103;28;20071;-80
2022/05/09 01:16:30;;;;;;;4.20;2.15;;;;;;;-141.50;100.00;63355.56;5073468;28;20055;-79
2022/05/09 01:18:59;;;;;;;5.13;2.50;;;;;;;-141.50;100.00;63355.56;5091751;28;20432;-80
2022/05/09 01:21:39;;;;;;;4.93;2.40;;;;;;;-141.50;100.00;63355.56;5091334;28;20079;-80
2022/05/09 01:24:15;;;;;;;4.57;2.30;;;;;;;-141.50;100.00;63355.56;5071915;28;20059;-80
2022/05/09 01:26:42;;;;;;;5.25;2.53;;;;;;;-141.50;100.00;63355.56;5053901;28;20547;-81
2022/05/09 01:29:18;;;;;;;4.85;2.38;;;;;;;-141.50;100.00;63355.56;5053486;28;20064;-80
2022/05/09 01:31:47;;;;;;;5.60;2.80;;;;;;;-141.50;100.00;63355.56;5053199;28;20052;-80
2022/05/09 01:34:16;;;;;;;7.53;2.75;;;;;;;-141.50;100.00;63355.56;5073074;28;20052;-80
2022/05/09 01:36:48;;;;;;;5.68;2.90;;;;;;;-141.50;100.00;63355.56;5052425;28;20548;-81
2022/05/09 01:39:18;;;;;;;8.95;3.00;;;;;;;-141.50;100.00;63355.56;5070474;28;20048;-80
2022/05/09 01:41:50;;;;;;;6.07;2.75;;;;;;;-141.50;100.00;63355.56;5073479;28;20468;-80
2022/05/09 01:44:17;;;;;;;9.43;3.10;;;;;;;-141.50;100.00;63355.56;5058845;28;20131;-81
2022/05/09 01:49:34;;;;;;;4.88;2.70;;;;;;;-141.50;100.00;63355.56;5071644;28;20088;-81
2022/05/09 01:52:05;;;;;;;8.75;3.03;;;;;;;-141.50;100.00;63355.56;5071162;28;20057;-78
2022/05/09 01:54:32;;;;;;;8.43;3.25;;;;;;;-141.50;100.00;63355.56;5069785;28;20080;-77
2022/05/09 01:56:59;;;;;;;12.43;3.40;;;;;;;-141.50;100.00;63355.56;5053014;28;20052;-78
2022/05/09 01:59:26;;;;;;;13.40;3.00;;;;;;;-141.50;100.00;63355.56;5052761;28;20052;-81
2022/05/09 02:01:56;;;;;;;7.95;2.97;;;;;;;-141.50;100.00;63355.56;5052967;28;20049;-80
2022/05/09 02:04:23;;;;;;;5.32;2.53;;;;;;;-141.50;100.00;63355.56;5053233;28;20048;-80
2022/05/09 02:06:51;;;;;;;7.88;2.65;;;;;;;-141.50;100.00;63355.56;5081289;28;20105;-79
2022/05/09 02:09:17;;;;;;;8.98;2.80;;;;;;;-141.50;100.00;63355.56;5090355;28;20150;-80
2022/05/09 02:11:44;;;;;;;12.85;2.85;;;;;;;-141.50;100.00;63355.56;5073661;28;20079;-81
2022/05/09 02:14:11;;;;;;;7.40;2.50;;;;;;;-141.50;100.00;63355.56;5090458;28;20055;-80
2022/05/09 02:16:37;;;;;;;7.55;2.70;;;;;;;-141.50;100.00;63355.56;5091408;28;20102;-80
2022/05/09 02:19:06;;;;;;;7.95;3.20;;;;;;;-141.50;100.00;63355.56;5073923;28;20048;-80
2022/05/09 02:21:34;;;;;;;6.40;2.53;;;;;;;-141.50;100.00;63355.56;5092382;28;20047;-81
2022/05/09 02:24:01;;;;;;;7.13;2.85;;;;;;;-141.50;100.00;63355.56;5071349;28;20068;-78
2022/05/09 02:26:27;;;;;;;6.57;2.60;;;;;;;-141.50;100.00;63355.56;5052669;28;20102;-80
2022/05/09 02:28:54;;;;;;;5.15;2.55;;;;;;;-141.50;100.00;63355.56;5052425;28;20525;-79
2022/05/09 02:31:21;;;;;;;8.27;3.13;;;;;;;-141.50;100.00;63355.56;5052522;28;20076;-79
2022/05/09 02:33:48;;;;;;;9.15;2.80;;;;;;;-141.50;100.00;63355.56;5057222;28;20056;-77
2022/05/09 02:36:14;;;;;;;5.40;2.30;;;;;;;-141.50;100.00;63355.56;5058176;28;20044;-78
2022/05/09 02:38:41;;;;;;;5.68;2.88;;;;;;;-141.50;100.00;63355.56;5056111;28;20060;-80
2022/05/09 02:41:08;;;;;;;6.45;2.50;;;;;;;-141.50;100.00;63355.56;5072634;28;20070;-79
2022/05/09 02:43:34;;;;;;;6.13;2.40;;;;;;;-141.50;100.00;63355.56;5072246;28;20052;-78
2022/05/09 02:46:03;;;;;;;5.85;2.75;;;;;;;-141.50;100.00;63355.56;5070392;28;20095;-79
2022/05/09 02:48:36;;;;;;;6.35;2.42;;;;;;;-141.50;100.00;63355.56;5070649;28;20112;-81
2022/05/09 02:51:05;;;;;;;12.77;3.05;;;;;;;-141.50;100.00;63355.56;5070836;28;20056;-81
2022/05/09 02:53:32;;;;;;;8.73;3.00;;;;;;;-141.50;100.00;63355.56;5070035;28;20049;-82
2022/05/09 02:55:59;;;;;;;8.27;2.78;;;;;;;-141.50;100.00;63355.56;5070242;28;20053;-81
2022/05/09 02:58:25;;;;;;;5.35;2.92;;;;;;;-141.50;100.00;63355.56;5054511;28;20144;-81
2022/05/09 03:00:52;;;;;;;6.28;2.97;;;;;;;-141.50;100.00;63355.56;5069970;28;20052;-79
2022/05/09 03:06:04;;;;;;;6.13;2.85;;;;;;;-141.50;100.00;63355.56;5103252;28;20125;-78
2022/05/09 03:08:31;;;;;;;10.15;2.58;;;;;;;-141.50;100.00;63355.56;5114207;28;20117;-79
2022/05/09 03:10:57;;;;;;;9.93;2.97;;;;;;;-141.50;100.00;63355.56;5092737;28;20090;-81
2022/05/09 03:13:24;;;;;;;7.50;2.63;;;;;;;-141.50;100.00;63355.56;5111028;28;20127;-81
2022/05/09 03:15:51;;;;;;;6.20;3.33;;;;;;;-141.50;100.00;63355.56;5111017;28;20051;-80
2022/05/09 03:18:22;;;;;;;9.73;3.00;;;;;;;-141.50;100.00;63355.56;5093093;28;20048;-80
2022/05/09 03:20:49;;;;;;;7.93;3.70;;;;;;;-141.50;100.00;63355.56;5074907;28;20520;-79
2022/05/09 03:23:17;;;;;;;12.18;3.40;;;;;;;-141.50;100.00;63355.56;5108342;28;20155;-80
2022/05/09 03:25:44;;;;;;;8.65;3.53;;;;;;;-141.50;100.00;63355.56;5097781;28;20142;-79
2022/05/09 03:28:14;;;;;;;8.73;3.50;;;;;;;-141.50;100.00;63355.56;5094262;28;20084;-81
2022/05/09 03:30:41;;;;;;;9.63;3.42;;;;;;;-141.50;100.00;63355.56;5099201;28;20052;-81
2022/05/09 03:33:07;;;;;;;11.35;3.47;;;;;;;-141.50;100.00;63355.56;5099243;28;20051;-80
2022/05/09 03:35:34;;;;;;;8.27;3.25;;;;;;;-141.50;100.00;63355.56;5101533;28;20080;-80
2022/05/09 03:38:01;;;;;;;8.88;3.72;;;;;;;-141.50;100.00;63355.56;5096049;28;20067;-81
2022/05/09 03:40:28;;;;;;;7.43;3.80;;;;;;;-141.50;100.00;63355.56;5098312;28;20076;-79
2022/05/09 03:42:56;;;;;;;11.00;3.35;;;;;;;-141.50;100.00;63355.56;5081235;28;20052;-80
2022/05/09 03:45:23;;;;;;;6.75;3.38;;;;;;;-141.50;100.00;63355.56;5081732;28;20055;-82
2022/05/09 03:47:50;;;;;;;5.40;2.95;;;;;;;-141.50;100.00;63355.56;5101202;28;20082;-79
2022/05/09 03:50:17;;;;;;;6.55;2.80;;;;;;;-141.50;100.00;63355.56;5099006;28;20101;-81
2022/05/09 03:52:46;;;;;;;8.73;2.72;;;;;;;-141.50;100.00;63355.56;5080266;28;20539;-81
2022/05/09 03:55:13;;;;;;;4.63;2.65;;;;;;;-141.50;100.00;63355.56;5099965;28;20110;-79
2022/05/09 03:57:53;;;;;;;8.30;2.22;;;;;;;-141.50;100.00;63355.56;5099946;28;20098;-79
2022/05/09 04:00:24;;;;;;;8.30;2.58;;;;;;;-141.50;100.00;63355.56;5082741;28;20083;-79
2022/05/09 04:02:51;;;;;;;7.47;3.20;;;;;;;-141.50;100.00;63355.56;5082388;28;20048;-80
2022/05/09 04:05:18;;;;;;;9.98;2.63;;;;;;;-141.50;100.00;63355.56;5087958;28;20063;-82
2022/05/09 04:07:47;;;;;;;7.55;2.95;;;;;;;-141.50;100.00;63355.56;5084584;28;20049;-77
2022/05/09 04:10:17;;;;;;;7.00;3.00;;;;;;;-141.50;100.00;63355.56;5061502;28;20080;-79
2022/05/09 04:12:44;;;;;;;8.45;3.28;;;;;;;-141.50;100.00;63355.56;5059640;28;20048;-80
2022/05/09 04:17:57;;;;;;;6.90;2.35;;;;;;;-141.50;100.00;63355.56;5073252;28;20102;-78
2022/05/09 04:20:25;;;;;;;9.20;3.38;;;;;;;-141.50;100.00;63355.56;5075792;28;20058;-77
2022/05/09 04:22:52;;;;;;;13.35;3.45;;;;;;;-141.50;100.00;63355.56;5077109;28;20102;-81
2022/05/09 04:25:21;;;;;;;18.58;3.58;;;;;;;-141.50;100.00;63355.56;5084966;28;20060;-79
2022/05/09 04:27:49;;;;;;;9.18;3.47;;;;;;;-141.50;100.00;63355.56;5102356;28;20508;-77
2022/05/09 04:30:16;;;;;;;12.73;4.03;;;;;;;-141.50;100.00;63355.56;5094964;28;20063;-77
2022/05/09 04:32:43;;;;;;;9.48;3.08;;;;;;;-141.50;100.00;63355.56;5094300;28;20040;-78
2022/05/09 04:35:14;;;;;;;7.95;3.70;;;;;;;-141.50;100.00;63355.56;5083630;28;20511;-80
2022/05/09 04:37:45;;;;;;;9.10;3.20;;;;;;;-141.50;100.00;63355.56;5092323;28;20048;-79
2022/05/09 04:40:12;;;;;;;8.77;3.70;;;;;;;-141.50;100.00;63355.56;5093873;28;20109;-80
2022/05/09 04:42:39;;;;;;;10.35;3.72;;;;;;;-141.50;100.00;63355.56;5092548;28;20633;-82
2022/05/09 04:45:06;;;;;;;17.00;4.07;;;;;;;-141.50;100.00;63355.56;5074969;28;20114;-81
2022/05/09 04:47:36;;;;;;;12.00;4.43;;;;;;;-141.50;100.00;63355.56;5076278;28;20506;-83
2022/05/09 04:50:06;;;;;;;10.80;4.53;;;;;;;-141.50;100.00;63355.56;5090685;28;20132;-81
2022/05/09 04:52:36;;;;;;;12.63;5.25;;;;;;;-141.50;100.00;63355.56;5083476;28;20048;-86
2022/05/09 04:55:02;;;;;;;15.13;4.70;;;;;;;-141.50;100.00;63355.56;5085317;28;20127;-80
2022/05/09 04:57:30;;;;;;;12.57;5.70;;;;;;;-141.50;100.00;63355.56;5063438;28;20102;-82
2022/05/09 04:59:58;;;;;;;15.60;5.82;;;;;;;-141.50;100.00;63355.56;5071329;28;20055;-80
2022/05/09 05:02:28;;;;;;;15.27;6.57;;;;;;;-141.50;100.00;63355.56;5068328;28;20063;-82
2022/05/09 05:04:54;;;;;;;16.67;6.97;;;;;;;-141.50;100.00;63355.56;5081662;28;20142;-79
2022/05/09 05:07:21;;;;;;;14.98;6.65;;;;;;;-141.50;100.00;63355.56;5069251;28;20044;-82
2022/05/09 05:09:48;;;;;;;17.35;6.50;;;;;;;-141.50;100.00;63355.56;5066417;28;20052;-84
2022/05/09 05:12:15;;;;;;;15.88;6.25;;;;;;;-141.50;100.00;63355.56;5090246;28;20074;-83
2022/05/09 05:14:41;;;;;;;16.50;6.45;;;;;;;-141.50;100.00;63355.56;5085770;28;20056;-79
2022/05/09 05:17:13;;;;;;;20.15;7.13;;;;;;;-141.50;100.00;63355.56;5085281;28;20052;-78
2022/05/09 05:19:44;;;;;;;12.70;5.40;;;;;;;-141.50;100.00;63355.56;5099098;28;20060;-80
2022/05/09 05:22:15;;;;;;;13.18;5.50;;;;;;;-141.50;100.00;63355.56;5080665;28;20084;-83
2022/05/09 05:24:44;;;;;;;10.98;5.15;;;;;;;-141.50;100.00;63355.56;5069702;28;20135;-84
2022/05/09 05:27:13;;;;;;;14.45;5.53;;;;;;;-141.50;100.00;63355.56;5067107;28;20114;-80
2022/05/09 05:29:41;;;;;;;10.25;5.00;;;;;;;-141.50;100.00;63355.56;5070311;28;20095;-84
2022/05/09 05:32:19;;;;;;;10.93;5.35;;;;;;;-141.50;100.00;63355.56;5088575;28;20044;-81
2022/05/09 05:34:47;;;;;;;13.60;5.20;;;;;;;-141.50;100.00;63355.56;5085096;28;20064;-80
2022/05/09 05:37:15;;;;;;;10.90;5.35;;;;;;;-141.50;100.00;63355.56;5069472;28;20139;-81
2022/05/09 05:39:43;;;;;;;15.75;5.68;;;;;;;-141.50;100.00;63355.56;5069217;28;20079;-82
2022/05/09 05:42:11;;;;;;;13.20;5.47;;;;;;;-141.50;100.00;63355.56;5067658;28;20514;-83
2022/05/09 05:44:37;;;;;;;18.60;8.32;;;;;;;-141.50;100.00;63355.56;5079226;28;20071;-80
2022/05/09 05:47:11;;;;;;;21.50;8.85;;;;;;;-141.50;100.00;63355.56;5077685;28;20056;-81
2022/05/09 05:49:40;;;;;;;21.25;9.35;;;;;;;-141.50;100.00;63355.56;5054326;28;20072;-82
2022/05/09 05:52:08;;;;;;;11.27;6.05;;;;;;;-141.50;100.00;63355.56;5083426;28;20051;-79
2022/05/09 05:54:39;;;;;;;14.60;5.88;;;;;;;-141.50;100.00;63355.56;5090509;28;20123;-82
2022/05/09 05:57:14;;;;;;;12.52;5.75;;;;;;;-141.50;100.00;63355.56;5073817;28;20192;-81
2022/05/09 05:59:40;;;;;;;19.63;6.05;;;;;;;-141.50;100.00;63355.56;5092026;28;20059;-80
2022/05/09 06:02:07;;;;;;;12.88;5.78;;;;;;;-141.50;100.00;63355.56;5062653;28;20047;-81
2022/05/09 06:04:34;;;;;;;14.73;6.00;;;;;;;-141.50;100.00;63355.56;5083725;28;20051;-79
2022/05/09 06:07:00;;;;;;;15.63;6.55;;;;;;;-141.50;100.00;63355.56;5092375;28;20048;-84
2022/05/09 06:09:27;;;;;;;15.77;5.82;;;;;;;-141.50;100.00;63355.56;5097471;28;20048;-82
2022/05/09 06:11:53;;;;;;;12.52;6.28;;;;;;;-141.50;100.00;63355.56;5094985;28;20078;-84
2022/05/09 06:14:20;;;;;;;14.55;6.22;;;;;;;-141.50;100.00;63355.56;5083891;28;20056;-80
2022/05/09 06:16:46;;;;;;;14.95;6.00;;;;;;;-141.50;100.00;63355.56;5079992;28;20051;-85
2022/05/09 06:19:13;;;;;;;10.55;5.43;;;;;;;-141.50;100.00;63355.56;5076622;28;20044;-81
2022/05/09 06:21:39;;;;;;;19.15;6.30;;;;;;;-141.50;100.00;63355.56;5057489;28;20048;-80
2022/05/09 06:24:08;;;;;;;16.25;5.25;;;;;;;-141.50;100.00;63355.56;5074882;28;20437;-81
2022/05/09 06:26:36;;;;;;;12.05;5.22;;;;;;;-141.50;100.00;63355.56;5072846;28;20429;-82
2022/05/09 06:29:06;;;;;;;18.88;4.82;;;;;;;-141.50;100.00;63355.56;5074651;28;20048;-81
2022/05/09 06:31:37;;;;;;;12.77;5.28;;;;;;;-141.50;100.00;63355.56;5095637;28;20082;-81
2022/05/09 06:34:05;;;;;;;13.02;5.00;;;;;;;-141.50;100.00;63355.56;5080009;28;20143;-79
2022/05/09 06:36:33;;;;;;;21.05;5.15;;;;;;;-141.50;100.00;63355.56;5075899;28;20447;-81
2022/05/09 06:39:00;;;;;;;14.63;5.50;;;;;;;-141.50;100.00;63355.56;5071973;28;20105;-83
2022/05/09 06:41:27;;;;;;;13.60;5.05;;;;;;;-141.50;100.00;63355.56;5074408;28;20044;-82
2022/05/09 06:43:54;;;;;;;14.15;4.70;;;;;;;-141.50;100.00;63355.56;5090500;28;20389;-81
2022/05/09 06:46:20;;;;;;;24.33;5.00;;;;;;;-141.50;100.00;63355.56;5074770;28;20748;-81
2022/05/09 06:48:47;;;;;;;13.85;5.35;;;;;;;-141.50;100.00;63355.56;5074804;28;20603;-84
2022/05/09 06:51:13;;;;;;;14.43;4.72;;;;;;;-141.50;100.00;63355.56;5090786;28;20062;-78
2022/05/09 06:53:40;;;;;;;13.07;4.68;;;;;;;-141.50;100.00;63355.56;5113091;28;20059;-78
2022/05/09 06:56:08;;;;;;;16.30;4.70;;;;;;;-141.50;100.00;63355.56;5096334;28;20091;-77
2022/05/09 06:58:35;;;;;;;14.70;4.45;;;;;;;-141.50;100.00;63355.56;5106926;28;20044;-83
2022/05/09 07:01:12;;;;;;;11.80;4.35;;;;;;;-141.50;100.00;63355.56;5096098;28;20094;-81
2022/05/09 07:03:38;;;;;;;8.68;3.45;;;;;;;-141.50;100.00;63355.56;5081933;28;20040;-83
2022/05/09 07:06:05;;;;;;;14.50;3.72;;;;;;;-141.50;100.00;63355.56;5086461;28;20083;-84
2022/05/09 07:08:32;;;;;;;14.63;3.92;;;;;;;-141.50;100.00;63355.56;5095805;28;20040;-82
2022/05/09 07:10:59;;;;;;;9.85;3.10;;;;;;;-141.50;100.00;63355.56;5094506;28;20067;-83
2022/05/09 07:13:38;;;;;;;12.00;3.72;;;;;;;-141.50;100.00;63355.56;5092996;28;20206;-82
2022/05/09 07:16:08;;;;;;;9.30;2.85;;;;;;;-141.50;100.00;63355.56;5093274;28;20048;-82
2022/05/09 07:18:36;;;;;;;11.80;2.50;;;;;;;-141.50;100.00;63355.56;5076201;28;20040;-82
2022/05/09 07:21:03;;;;;;;9.20;2.90;;;;;;;-141.50;100.00;63355.56;5075865;28;20083;-83
2022/05/09 07:23:30;;;;;;;12.63;2.78;;;;;;;-141.50;100.00;63355.56;5089929;28;20415;-83
2022/05/09 07:25:56;;;;;;;7.93;2.70;;;;;;;-141.50;100.00;63355.56;5071040;28;20048;-79
2022/05/09 07:28:24;;;;;;;15.77;3.53;;;;;;;-141.50;100.00;63355.56;5052100;28;20049;-83
2022/05/09 07:30:51;;;;;;;10.73;3.20;;;;;;;-141.50;100.00;63355.56;5069548;28;20666;-81
2022/05/09 07:33:19;;;;;;;10.35;3.90;;;;;;;-141.50;100.00;63355.56;5054568;28;20052;-83
2022/05/09 07:35:47;;;;;;;13.70;3.58;;;;;;;-141.50;100.00;63355.56;5064297;28;20090;-82
2022/05/09 07:38:13;;;;;;;11.07;3.90;;;;;;;-141.50;100.00;63355.56;5079887;28;20036;-82
2022/05/09 07:40:42;;;;;;;10.07;3.78;;;;;;;-141.50;100.00;63355.56;5068652;28;20041;-79
2022/05/09 07:43:12;;;;;;;11.55;4.45;;;;;;;-141.50;100.00;63355.56;5086455;28;20067;-79
2022/05/09 07:45:39;;;;;;;13.93;3.70;;;;;;;-141.50;100.00;63355.56;5088984;28;20074;-80
2022/05/09 07:48:07;;;;;;;14.60;3.85;;;;;;;-141.50;100.00;63355.56;5110397;28;20055;-79
2022/05/09 07:50:34;;;;;;;10.18;3.80;;;;;;;-141.50;100.00;63355.56;5104863;28;20043;-84
2022/05/09 07:53:06;;;;;;;10.82;3.60;;;;;;;-141.50;100.00;63355.56;5094042;28;20696;-83
2022/05/09 07:55:33;;;;;;;10.35;3.42;;;;;;;-141.50;100.00;63355.56;5076040;28;20082;-86
2022/05/09 07:57:59;;;;;;;8.32;3.28;;;;;;;-141.50;100.00;63355.56;5074729;28;20074;-85
2022/05/09 08:00:26;;;;;;;8.73;2.92;;;;;;;-141.50;100.00;63355.56;5093730;28;20102;-83
2022/05/09 08:02:53;;;;;;;11.65;3.38;;;;;;;-141.50;100.00;63355.56;5093308;28;20048;-84
2022/05/09 08:05:20;;;;;;;8.82;3.53;;;;;;;-141.50;100.00;63355.56;5088569;28;20621;-82
2022/05/09 08:07:47;;;;;;;12.35;3.88;;;;;;;-141.50;100.00;63355.56;5108683;28;20048;-84
2022/05/09 08:10:16;;;;;;;10.23;4.32;;;;;;;-141.50;100.00;63355.56;5114607;28;20051;-82
2022/05/09 08:12:43;;;;;;;11.20;4.00;;;;;;;-141.50;100.00;63355.56;5110905;28;20625;-83
2022/05/09 08:15:13;;;;;;;14.65;4.32;;;;;;;-141.50;100.00;63355.56;5077548;28;20067;-84
2022/05/09 08:17:40;;;;;;;16.65;4.00;;;;;;;-141.50;100.00;63355.56;5053601;28;20052;-83
2022/05/09 08:20:08;;;;;;;12.75;3.45;;;;;;;-141.50;100.00;63355.56;5072615;28;20068;-82
2022/05/09 08:22:35;;;;;;;14.90;3.45;;;;;;;-141.50;100.00;63355.56;5072584;28;20090;-83
2022/05/09 08:25:04;;;;;;;10.80;3.85;;;;;;;-141.50;100.00;63355.56;5085840;28;20052;-84
2022/05/09 08:27:32;;;;;;;7.38;3.75;;;;;;;-141.50;100.00;63355.56;5097304;28;20056;-84
2022/05/09 08:29:59;;;;;;;8.23;3.45;;;;;;;-141.50;100.00;63355.56;5078740;28;20086;-85
2022/05/09 08:32:27;;;;;;;9.25;3.45;;;;;;;-141.50;100.00;63355.56;5097343;28;20052;-82
2022/05/09 08:34:56;;;;;;;11.30;2.90;;;;;;;-141.50;100.00;63355.56;5079955;28;20167;-83
2022/05/09 08:37:24;;;;;;;8.23;3.35;;;;;;;-141.50;100.00;63355.56;5097708;28;20138;-83
2022/05/09 08:39:51;;;;;;;10.27;4.22;;;;;;;-141.50;100.00;63355.56;5080930;28;20131;-84
2022/05/09 08:42:25;;;;;;;11.63;3.63;;;;;;;-141.50;100.00;63355.56;5098149;28;20056;-82
2022/05/09 08:45:18;;;;;;;9.38;3.85;;;;;;;-141.50;100.00;63355.56;5096243;28;20067;-78
2022/05/09 08:48:07;;;;;;;10.30;4.20;;;;;;;-141.50;100.00;63355.56;5114020;28;20035;-79
2022/05/09 08:50:52;;;;;;;15.57;3.88;;;;;;;-141.50;100.00;63355.56;5099201;28;20028;-78
2022/05/09 08:53:23;;;;;;;13.27;4.03;;;;;;;-141.50;100.00;63355.56;5101829;28;20701;-83
2022/05/09 08:55:52;;;;;;;8.10;3.25;;;;;;;-141.50;100.00;63355.56;5112850;28;20048;-80
2022/05/09 08:58:41;;;;;;;8.13;3.20;;;;;;;-141.50;100.00;63355.56;5098732;28;20071;-81
2022/05/09 09:01:23;;;;;;;8.82;2.60;;;;;;;-141.50;100.00;63355.56;5091303;28;20122;-82
2022/05/09 09:04:01;;;;;;;6.88;2.67;;;;;;;-141.50;100.00;63355.56;5074162;28;20132;-82
2022/05/09 09:06:42;;;;;;;9.88;3.00;;;;;;;-141.50;100.00;63355.56;5091907;28;20055;-83
2022/05/09 09:09:27;;;;;;;9.77;2.88;;;;;;;-141.50;100.00;63355.56;5081039;28;20076;-86
2022/05/09 09:12:06;;;;;;;7.87;3.00;;;;;;;-141.50;100.00;63355.56;5077212;28;20053;-82
2022/05/09 09:14:41;;;;;;;10.25;2.65;;;;;;;-141.50;100.00;63355.56;5086084;28;20100;-84
2022/05/09 09:17:14;;;;;;;;;;;;;;;-141.50;100.00;63355.56;5091697;28;20101;-83
2022/05/09 09:19:52;;;;;;;15.68;3.47;;;;;;;-141.50;100.00;63355.56;5091865;28;19973;-82
2022/05/09 09:22:51;;;;;;;8.00;3.00;;;;;;;-141.50;100.00;63355.56;5082824;28;20044;-80
2022/05/09 09:25:40;;;;;;;9.75;3.08;;;;;;;-141.50;100.00;63355.56;5116237;28;20073;-80
2022/05/09 09:28:21;;;;;;;11.43;2.92;;;;;;;-141.50;100.00;63355.56;5115553;28;20047;-81
2022/05/09 09:30:50;;;;;;;9.45;2.97;;;;;;;-141.50;100.00;63355.56;5091832;28;20072;-85
2022/05/09 09:33:19;;;;;;;10.57;3.17;;;;;;;-141.50;100.00;63355.56;5096120;28;20480;-83
2022/05/09 09:36:02;;;;;;;8.02;2.83;;;;;;;-141.50;100.00;63355.56;5077720;28;20112;-85
2022/05/09 09:39:07;;;;;;;8.77;2.58;;;;;;;-141.50;100.00;63355.56;5096620;28;20070;-84
2022/05/09 09:41:35;;;;;;;9.48;2.45;;;;;;;-141.50;100.00;63355.56;5088784;28;20051;-81
2022/05/09 09:44:09;;;;;;;7.35;2.65;;;;;;;-141.50;100.00;63355.56;5089659;28;20124;-81
2022/05/09 09:47:30;;;;;;;11.52;3.47;;;;;;;-141.50;100.00;63355.56;5089446;28;20416;-81
2022/05/09 09:50:25;;;;;;;6.05;2.55;;;;;;;-141.50;100.00;63355.56;4968311;28;20603;-85
2022/05/09 09:52:54;;;;;;;7.47;2.47;;;;;;;-141.50;100.00;63355.56;5101874;28;20059;-84
2022/05/09 09:55:30;;;;;;;9.48;2.40;;;;;;;-141.50;100.00;63355.56;5085701;28;20048;-84
2022/05/09 09:58:20;;;;;;;7.93;2.53;;;;;;;-141.50;100.00;63355.56;5093294;28;20082;-85
2022/05/09 10:00:47;;;;;;;10.55;2.67;;;;;;;-141.50;100.00;63355.56;5094877;28;20113;-84
2022/05/09 10:03:18;;;;;;;9.25;2.70;;;;;;;-141.50;100.00;63355.56;5098110;28;20060;-82
2022/05/09 10:05:46;;;;;;;5.70;2.63;;;;;;;-141.50;100.00;63355.56;5095612;28;20048;-79
2022/05/09 10:08:39;;;;;;;11.85;2.88;;;;;;;-141.50;100.00;63355.56;5056978;28;20117;-84
2022/05/09 10:11:23;;;;;;;9.02;3.15;;;;;;;-141.50;100.00;63355.56;5074837;28;20562;-85
2022/05/09 10:13:56;;;;;;;8.10;2.90;;;;;;;-141.50;100.00;63355.56;5074092;28;20056;-84
2022/05/09 10:16:33;;;;;;;12.50;3.10;;;;;;;-141.50;100.00;63355.56;5048669;28;20135;-84
2022/05/09 10:19:02;;;;;;;9.90;3.17;;;;;;;-141.50;100.00;63355.56;5066541;28;20045;-82
2022/05/09 10:24:47;;;;;;;10.15;3.83;;;;;;;-141.50;100.00;63355.56;5088358;28;20075;-83
2022/05/09 10:27:29;;;;;;;10.88;3.50;;;;;;;-141.50;100.00;63355.56;5087575;28;20449;-84
2022/05/09 10:30:29;;;;;;;7.13;3.03;;;;;;;-141.50;100.00;63355.56;5091033;28;20097;-86
2022/05/09 10:33:04;;;;;;;8.82;3.40;;;;;;;-141.50;100.00;63355.56;5066013;28;20455;-85
2022/05/09 10:35:36;;;;;;;10.77;3.90;;;;;;;-141.50;100.00;63355.56;5071544;28;20117;-85
2022/05/09 10:38:11;;;;;;;13.10;3.58;;;;;;;-141.50;100.00;63355.56;5071759;28;20282;-84
2022/05/09 10:40:43;;;;;;;13.77;3.35;;;;;;;-141.50;100.00;63355.56;5072267;28;20174;-85
2022/05/09 10:43:18;;;;;;;14.13;3.85;;;;;;;-141.50;100.00;63355.56;5090505;28;20056;-83
2022/05/09 10:45:49;;;;;;;11.48;3.67;;;;;;;-141.50;100.00;63355.56;5076428;28;20542;-84
2022/05/09 10:48:21;;;;;;;8.82;3.67;;;;;;;-141.50;100.00;63355.56;5052840;28;20068;-85
2022/05/09 10:51:03;;;;;;;7.20;3.47;;;;;;;-141.50;100.00;63355.56;5071938;28;20067;-84
2022/05/09 10:53:55;;;;;;;10.10;3.53;;;;;;;-141.50;100.00;63355.56;5074526;28;20049;-85
2022/05/09 10:56:28;;;;;;;12.40;3.63;;;;;;;-141.50;100.00;63355.56;5056014;28;20080;-86
2022/05/09 10:59:03;;;;;;;10.00;3.17;;;;;;;-141.50;100.00;63355.56;5072463;28;20079;-82
2022/05/09 11:01:44;;;;;;;9.50;4.88;;;;;;;-141.50;100.00;63355.56;5071494;28;20056;-84
2022/05/09 11:04:13;;;;;;;15.45;3.22;;;;;;;-141.50;100.00;63355.56;5056967;28;20539;-82
2022/05/09 11:07:01;;;;;;;11.10;3.53;;;;;;;-141.50;100.00;63355.56;5075514;28;20091;-83
2022/05/09 11:09:54;;;;;;;7.63;3.38;;;;;;;-141.50;100.00;63355.56;5071143;28;20041;-86
2022/05/09 11:12:58;;;;;;;8.80;3.70;;;;;;;-141.50;100.00;63355.56;5083619;28;20048;-83
2022/05/09 11:16:04;;;;;;;8.43;3.22;;;;;;;-141.50;100.00;63355.56;5089401;28;20048;-84
2022/05/09 11:19:01;;;;;;;9.93;3.63;;;;;;;-141.50;100.00;63355.56;5112885;28;20097;-80
2022/05/09 11:21:39;;;;;;;7.85;3.45;;;;;;;-141.50;100.00;63355.56;5113412;28;20266;-85
2022/05/09 11:24:40;;;;;;;9.27;3.60;;;;;;;-141.50;100.00;63355.56;5105212;28;20040;-79
2022/05/09 11:27:17;;;;;;;9.82;3.13;;;;;;;-141.50;100.00;63355.56;5080263;28;20127;-83
2022/05/09 11:30:10;;;;;;;12.35;3.22;;;;;;;-141.50;100.00;63355.56;5091608;28;20138;-83
2022/05/09 11:32:42;;;;;;;13.80;3.30;;;;;;;-141.50;100.00;63355.56;5090978;28;20075;-83
2022/05/09 11:35:21;;;;;;;10.73;3.30;;;;;;;-141.50;100.00;63355.56;5090616;28;20516;-85
2022/05/09 11:38:09;;;;;;;8.98;3.80;;;;;;;-141.50;100.00;63355.56;5073906;28;20056;-82